sensor_id;sensor_type;location;lat;lon;timestamp;P1;durP1;ratioP1;P2;durP2;ratioP2
25870;SDS011;13689;48.590;7.752;2022-10-16T00:00:37;2.70;;;1.33;;
25870;SDS011;13689;48.590;7.752;2022-10-16T00:03:04;4.10;;;1.33;;
25870;SDS011;13689;48.590;7.752;2022-10-16T00:05:30;5.28;;;1.38;;
25870;SDS011;13689;48.590;7.752;2022-10-16T00:07:56;1.25;;;1.10;;
25870;SDS011;13689;48.590;7.752;2022-10-16T00:10:22;1.15;;;1.10;;
25870;SDS011;13689;48.590;7.752;2022-10-16T00:12:48;3.03;;;1.23;;
25870;SDS011;13689;48.590;7.752;2022-10-16T00:15:14;3.20;;;1.20;;
25870;SDS011;13689;48.590;7.752;2022-10-16T00:17:39;1.13;;;1.02;;
25870;SDS011;13689;48.590;7.752;2022-10-16T00:20:05;1.30;;;1.20;;
25870;SDS011;13689;48.590;7.752;2022-10-16T00:22:31;1.30;;;1.00;;
25870;SDS011;13689;48.590;7.752;2022-10-16T00:24:58;2.55;;;1.40;;
25870;SDS011;13689;48.590;7.752;2022-10-16T00:27:23;3.72;;;1.40;;
25870;SDS011;13689;48.590;7.752;2022-10-16T00:29:52;4.50;;;1.33;;
25870;SDS011;13689;48.590;7.752;2022-10-16T00:32:18;1.48;;;1.20;;
25870;SDS011;13689;48.590;7.752;2022-10-16T00:34:44;2.25;;;1.02;;
25870;SDS011;13689;48.590;7.752;2022-10-16T00:37:10;1.98;;;1.48;;
25870;SDS011;13689;48.590;7.752;2022-10-16T00:39:36;1.15;;;0.98;;
25870;SDS011;13689;48.590;7.752;2022-10-16T00:42:02;11.20;;;1.40;;
25870;SDS011;13689;48.590;7.752;2022-10-16T00:44:44;5.82;;;1.52;;
25870;SDS011;13689;48.590;7.752;2022-10-16T00:47:34;1.85;;;1.33;;
25870;SDS011;13689;48.590;7.752;2022-10-16T00:52:39;2.08;;;1.30;;
25870;SDS011;13689;48.590;7.752;2022-10-16T00:55:11;1.42;;;1.10;;
25870;SDS011;13689;48.590;7.752;2022-10-16T00:57:38;2.10;;;1.35;;
25870;SDS011;13689;48.590;7.752;2022-10-16T01:00:05;2.92;;;1.42;;
25870;SDS011;13689;48.590;7.752;2022-10-16T01:02:33;3.33;;;1.50;;
25870;SDS011;13689;48.590;7.752;2022-10-16T01:04:59;1.77;;;1.10;;
25870;SDS011;13689;48.590;7.752;2022-10-16T01:13:07;7.45;;;1.52;;
25870;SDS011;13689;48.590;7.752;2022-10-16T01:15:51;2.20;;;1.08;;
25870;SDS011;13689;48.590;7.752;2022-10-16T01:18:37;3.03;;;1.40;;
25870;SDS011;13689;48.590;7.752;2022-10-16T01:21:22;3.00;;;1.33;;
25870;SDS011;13689;48.590;7.752;2022-10-16T01:24:01;1.40;;;1.30;;
25870;SDS011;13689;48.590;7.752;2022-10-16T01:32:36;6.45;;;1.60;;
25870;SDS011;13689;48.590;7.752;2022-10-16T01:38:04;2.45;;;1.63;;
25870;SDS011;13689;48.590;7.752;2022-10-16T01:40:41;2.78;;;1.90;;
25870;SDS011;13689;48.590;7.752;2022-10-16T01:43:13;2.28;;;1.98;;
25870;SDS011;13689;48.590;7.752;2022-10-16T01:45:42;4.78;;;1.92;;
25870;SDS011;13689;48.590;7.752;2022-10-16T01:50:37;4.95;;;2.00;;
25870;SDS011;13689;48.590;7.752;2022-10-16T01:53:04;4.53;;;1.75;;
25870;SDS011;13689;48.590;7.752;2022-10-16T01:55:33;3.42;;;1.90;;
25870;SDS011;13689;48.590;7.752;2022-10-16T01:58:02;2.17;;;1.88;;
25870;SDS011;13689;48.590;7.752;2022-10-16T02:00:32;3.53;;;1.60;;
25870;SDS011;13689;48.590;7.752;2022-10-16T02:02:58;4.07;;;1.70;;
25870;SDS011;13689;48.590;7.752;2022-10-16T02:08:02;4.57;;;1.50;;
25870;SDS011;13689;48.590;7.752;2022-10-16T02:10:28;4.05;;;1.50;;
25870;SDS011;13689;48.590;7.752;2022-10-16T02:13:01;6.60;;;1.58;;
25870;SDS011;13689;48.590;7.752;2022-10-16T02:15:31;1.60;;;1.42;;
25870;SDS011;13689;48.590;7.752;2022-10-16T02:17:57;3.03;;;1.88;;
25870;SDS011;13689;48.590;7.752;2022-10-16T02:20:24;3.13;;;1.80;;
25870;SDS011;13689;48.590;7.752;2022-10-16T02:22:53;3.35;;;1.70;;
25870;SDS011;13689;48.590;7.752;2022-10-16T02:25:37;3.73;;;1.70;;
25870;SDS011;13689;48.590;7.752;2022-10-16T02:28:08;1.80;;;1.33;;
25870;SDS011;13689;48.590;7.752;2022-10-16T02:33:16;3.60;;;1.70;;
25870;SDS011;13689;48.590;7.752;2022-10-16T02:35:44;2.00;;;1.20;;
25870;SDS011;13689;48.590;7.752;2022-10-16T02:38:13;4.32;;;1.65;;
25870;SDS011;13689;48.590;7.752;2022-10-16T02:43:07;1.40;;;1.23;;
25870;SDS011;13689;48.590;7.752;2022-10-16T02:45:33;3.47;;;1.52;;
25870;SDS011;13689;48.590;7.752;2022-10-16T02:47:59;1.85;;;1.67;;
25870;SDS011;13689;48.590;7.752;2022-10-16T02:50:25;5.20;;;1.55;;
25870;SDS011;13689;48.590;7.752;2022-10-16T02:52:51;4.38;;;1.30;;
25870;SDS011;13689;48.590;7.752;2022-10-16T02:55:16;2.95;;;1.38;;
25870;SDS011;13689;48.590;7.752;2022-10-16T02:57:42;2.60;;;1.60;;
25870;SDS011;13689;48.590;7.752;2022-10-16T03:00:12;3.20;;;1.45;;
25870;SDS011;13689;48.590;7.752;2022-10-16T03:02:40;2.28;;;1.48;;
25870;SDS011;13689;48.590;7.752;2022-10-16T03:05:06;4.20;;;1.50;;
25870;SDS011;13689;48.590;7.752;2022-10-16T03:07:32;6.22;;;1.58;;
25870;SDS011;13689;48.590;7.752;2022-10-16T03:09:58;2.35;;;1.30;;
25870;SDS011;13689;48.590;7.752;2022-10-16T03:12:25;6.65;;;1.80;;
25870;SDS011;13689;48.590;7.752;2022-10-16T03:14:51;5.05;;;1.70;;
25870;SDS011;13689;48.590;7.752;2022-10-16T03:17:17;8.70;;;1.67;;
25870;SDS011;13689;48.590;7.752;2022-10-16T03:19:43;2.85;;;1.50;;
25870;SDS011;13689;48.590;7.752;2022-10-16T03:22:08;3.40;;;1.38;;
25870;SDS011;13689;48.590;7.752;2022-10-16T03:24:34;3.75;;;1.63;;
25870;SDS011;13689;48.590;7.752;2022-10-16T03:27:00;2.30;;;1.30;;
25870;SDS011;13689;48.590;7.752;2022-10-16T03:29:25;6.65;;;1.48;;
25870;SDS011;13689;48.590;7.752;2022-10-16T03:31:52;5.07;;;1.65;;
25870;SDS011;13689;48.590;7.752;2022-10-16T03:34:18;4.32;;;1.20;;
25870;SDS011;13689;48.590;7.752;2022-10-16T03:36:44;4.38;;;1.35;;
25870;SDS011;13689;48.590;7.752;2022-10-16T03:39:09;2.72;;;1.40;;
25870;SDS011;13689;48.590;7.752;2022-10-16T03:41:35;2.50;;;1.20;;
25870;SDS011;13689;48.590;7.752;2022-10-16T03:44:00;2.05;;;1.45;;
25870;SDS011;13689;48.590;7.752;2022-10-16T03:46:26;2.80;;;1.10;;
25870;SDS011;13689;48.590;7.752;2022-10-16T03:48:52;1.92;;;1.20;;
25870;SDS011;13689;48.590;7.752;2022-10-16T03:51:17;4.13;;;1.30;;
25870;SDS011;13689;48.590;7.752;2022-10-16T03:53:43;3.40;;;1.35;;
25870;SDS011;13689;48.590;7.752;2022-10-16T03:56:09;4.97;;;1.20;;
25870;SDS011;13689;48.590;7.752;2022-10-16T03:58:34;2.05;;;1.33;;
25870;SDS011;13689;48.590;7.752;2022-10-16T04:01:00;1.10;;;1.10;;
25870;SDS011;13689;48.590;7.752;2022-10-16T04:03:25;3.15;;;1.55;;
25870;SDS011;13689;48.590;7.752;2022-10-16T04:05:51;1.55;;;1.30;;
25870;SDS011;13689;48.590;7.752;2022-10-16T04:08:18;4.47;;;1.40;;
25870;SDS011;13689;48.590;7.752;2022-10-16T04:10:43;2.38;;;1.58;;
25870;SDS011;13689;48.590;7.752;2022-10-16T04:13:09;1.60;;;1.27;;
25870;SDS011;13689;48.590;7.752;2022-10-16T04:15:35;1.45;;;1.35;;
25870;SDS011;13689;48.590;7.752;2022-10-16T04:18:01;3.92;;;1.50;;
25870;SDS011;13689;48.590;7.752;2022-10-16T04:20:26;6.75;;;1.45;;
25870;SDS011;13689;48.590;7.752;2022-10-16T04:22:52;4.95;;;1.90;;
25870;SDS011;13689;48.590;7.752;2022-10-16T04:25:18;1.73;;;1.25;;
25870;SDS011;13689;48.590;7.752;2022-10-16T04:27:43;2.78;;;1.60;;
25870;SDS011;13689;48.590;7.752;2022-10-16T04:30:09;3.63;;;1.38;;
25870;SDS011;13689;48.590;7.752;2022-10-16T04:32:35;3.22;;;1.17;;
25870;SDS011;13689;48.590;7.752;2022-10-16T04:35:01;3.53;;;1.50;;
25870;SDS011;13689;48.590;7.752;2022-10-16T04:37:27;5.05;;;1.50;;
25870;SDS011;13689;48.590;7.752;2022-10-16T04:39:53;4.30;;;1.95;;
25870;SDS011;13689;48.590;7.752;2022-10-16T04:42:19;2.58;;;1.50;;
25870;SDS011;13689;48.590;7.752;2022-10-16T04:44:45;4.85;;;1.70;;
25870;SDS011;13689;48.590;7.752;2022-10-16T04:47:11;2.42;;;1.52;;
25870;SDS011;13689;48.590;7.752;2022-10-16T04:49:37;3.78;;;1.60;;
25870;SDS011;13689;48.590;7.752;2022-10-16T04:52:03;5.70;;;1.83;;
25870;SDS011;13689;48.590;7.752;2022-10-16T04:54:29;3.72;;;1.90;;
25870;SDS011;13689;48.590;7.752;2022-10-16T04:56:54;2.83;;;1.90;;
25870;SDS011;13689;48.590;7.752;2022-10-16T04:59:21;3.60;;;1.88;;
25870;SDS011;13689;48.590;7.752;2022-10-16T05:01:47;6.85;;;1.77;;
25870;SDS011;13689;48.590;7.752;2022-10-16T05:04:13;4.60;;;2.15;;
25870;SDS011;13689;48.590;7.752;2022-10-16T05:06:40;4.82;;;2.00;;
25870;SDS011;13689;48.590;7.752;2022-10-16T05:09:06;5.78;;;1.90;;
25870;SDS011;13689;48.590;7.752;2022-10-16T05:11:32;2.80;;;2.00;;
25870;SDS011;13689;48.590;7.752;2022-10-16T05:13:58;4.90;;;2.33;;
25870;SDS011;13689;48.590;7.752;2022-10-16T05:16:24;4.47;;;2.28;;
25870;SDS011;13689;48.590;7.752;2022-10-16T05:18:53;3.83;;;1.83;;
25870;SDS011;13689;48.590;7.752;2022-10-16T05:21:20;6.43;;;2.47;;
25870;SDS011;13689;48.590;7.752;2022-10-16T05:23:45;5.22;;;1.88;;
25870;SDS011;13689;48.590;7.752;2022-10-16T05:26:11;5.65;;;2.00;;
25870;SDS011;13689;48.590;7.752;2022-10-16T05:28:37;3.15;;;1.80;;
25870;SDS011;13689;48.590;7.752;2022-10-16T05:31:06;7.82;;;1.85;;
25870;SDS011;13689;48.590;7.752;2022-10-16T05:33:33;2.53;;;1.88;;
25870;SDS011;13689;48.590;7.752;2022-10-16T05:36:02;3.17;;;1.58;;
25870;SDS011;13689;48.590;7.752;2022-10-16T05:38:30;1.77;;;1.63;;
25870;SDS011;13689;48.590;7.752;2022-10-16T05:40:55;3.45;;;2.00;;
25870;SDS011;13689;48.590;7.752;2022-10-16T05:43:21;6.95;;;2.13;;
25870;SDS011;13689;48.590;7.752;2022-10-16T05:46:00;1.80;;;1.58;;
25870;SDS011;13689;48.590;7.752;2022-10-16T05:48:30;4.38;;;1.90;;
25870;SDS011;13689;48.590;7.752;2022-10-16T05:50:57;7.60;;;1.63;;
25870;SDS011;13689;48.590;7.752;2022-10-16T05:53:30;5.30;;;1.92;;
25870;SDS011;13689;48.590;7.752;2022-10-16T05:55:58;7.35;;;1.98;;
25870;SDS011;13689;48.590;7.752;2022-10-16T05:58:24;3.20;;;1.85;;
25870;SDS011;13689;48.590;7.752;2022-10-16T06:00:57;8.82;;;2.13;;
25870;SDS011;13689;48.590;7.752;2022-10-16T06:03:25;3.80;;;1.63;;
25870;SDS011;13689;48.590;7.752;2022-10-16T06:05:51;2.25;;;1.70;;
25870;SDS011;13689;48.590;7.752;2022-10-16T06:08:17;5.43;;;1.88;;
25870;SDS011;13689;48.590;7.752;2022-10-16T06:10:44;5.67;;;2.20;;
25870;SDS011;13689;48.590;7.752;2022-10-16T06:13:10;3.85;;;1.95;;
25870;SDS011;13689;48.590;7.752;2022-10-16T06:15:37;3.88;;;1.80;;
25870;SDS011;13689;48.590;7.752;2022-10-16T06:18:04;7.45;;;2.78;;
25870;SDS011;13689;48.590;7.752;2022-10-16T06:20:30;17.13;;;3.83;;
25870;SDS011;13689;48.590;7.752;2022-10-16T06:22:56;4.03;;;2.03;;
25870;SDS011;13689;48.590;7.752;2022-10-16T06:25:22;4.50;;;1.92;;
25870;SDS011;13689;48.590;7.752;2022-10-16T06:27:48;6.30;;;1.80;;
25870;SDS011;13689;48.590;7.752;2022-10-16T06:30:13;9.15;;;1.75;;
25870;SDS011;13689;48.590;7.752;2022-10-16T06:32:39;1.98;;;1.75;;
25870;SDS011;13689;48.590;7.752;2022-10-16T06:35:04;6.90;;;2.05;;
25870;SDS011;13689;48.590;7.752;2022-10-16T06:37:30;1.75;;;1.30;;
25870;SDS011;13689;48.590;7.752;2022-10-16T06:39:56;4.57;;;1.50;;
25870;SDS011;13689;48.590;7.752;2022-10-16T06:42:21;6.45;;;1.65;;
25870;SDS011;13689;48.590;7.752;2022-10-16T06:44:47;3.47;;;1.60;;
25870;SDS011;13689;48.590;7.752;2022-10-16T06:47:13;3.28;;;1.60;;
25870;SDS011;13689;48.590;7.752;2022-10-16T06:49:38;12.05;;;1.70;;
25870;SDS011;13689;48.590;7.752;2022-10-16T06:52:04;2.33;;;1.60;;
25870;SDS011;13689;48.590;7.752;2022-10-16T06:54:29;2.72;;;1.35;;
25870;SDS011;13689;48.590;7.752;2022-10-16T06:56:55;1.48;;;1.33;;
25870;SDS011;13689;48.590;7.752;2022-10-16T06:59:21;5.38;;;2.10;;
25870;SDS011;13689;48.590;7.752;2022-10-16T07:01:46;1.65;;;1.17;;
25870;SDS011;13689;48.590;7.752;2022-10-16T07:04:12;5.53;;;1.60;;
25870;SDS011;13689;48.590;7.752;2022-10-16T07:06:38;2.80;;;1.38;;
25870;SDS011;13689;48.590;7.752;2022-10-16T07:09:05;2.28;;;1.45;;
25870;SDS011;13689;48.590;7.752;2022-10-16T07:11:33;5.05;;;1.60;;
25870;SDS011;13689;48.590;7.752;2022-10-16T07:14:01;9.40;;;1.52;;
25870;SDS011;13689;48.590;7.752;2022-10-16T07:16:28;1.92;;;1.50;;
25870;SDS011;13689;48.590;7.752;2022-10-16T07:18:56;5.13;;;1.63;;
25870;SDS011;13689;48.590;7.752;2022-10-16T07:21:23;3.28;;;1.33;;
25870;SDS011;13689;48.590;7.752;2022-10-16T07:23:54;5.82;;;1.05;;
25870;SDS011;13689;48.590;7.752;2022-10-16T07:26:22;8.98;;;2.10;;
25870;SDS011;13689;48.590;7.752;2022-10-16T07:28:49;4.03;;;1.70;;
25870;SDS011;13689;48.590;7.752;2022-10-16T07:31:15;6.85;;;1.58;;
25870;SDS011;13689;48.590;7.752;2022-10-16T07:33:43;2.38;;;1.63;;
25870;SDS011;13689;48.590;7.752;2022-10-16T07:36:10;2.15;;;1.40;;
25870;SDS011;13689;48.590;7.752;2022-10-16T07:38:36;1.55;;;1.45;;
25870;SDS011;13689;48.590;7.752;2022-10-16T07:41:03;1.05;;;0.95;;
25870;SDS011;13689;48.590;7.752;2022-10-16T07:43:30;1.77;;;1.48;;
25870;SDS011;13689;48.590;7.752;2022-10-16T07:45:56;5.93;;;1.25;;
25870;SDS011;13689;48.590;7.752;2022-10-16T07:48:23;4.13;;;1.33;;
25870;SDS011;13689;48.590;7.752;2022-10-16T07:50:51;5.00;;;1.50;;
25870;SDS011;13689;48.590;7.752;2022-10-16T07:53:17;4.47;;;1.23;;
25870;SDS011;13689;48.590;7.752;2022-10-16T07:55:42;1.80;;;1.27;;
25870;SDS011;13689;48.590;7.752;2022-10-16T07:58:08;2.38;;;1.38;;
25870;SDS011;13689;48.590;7.752;2022-10-16T08:00:35;3.35;;;1.48;;
25870;SDS011;13689;48.590;7.752;2022-10-16T08:03:01;2.22;;;1.30;;
25870;SDS011;13689;48.590;7.752;2022-10-16T08:05:27;2.65;;;1.52;;
25870;SDS011;13689;48.590;7.752;2022-10-16T08:07:54;5.28;;;1.30;;
25870;SDS011;13689;48.590;7.752;2022-10-16T08:10:21;9.40;;;1.45;;
25870;SDS011;13689;48.590;7.752;2022-10-16T08:12:48;7.28;;;1.30;;
25870;SDS011;13689;48.590;7.752;2022-10-16T08:15:14;3.30;;;1.23;;
25870;SDS011;13689;48.590;7.752;2022-10-16T08:17:39;6.43;;;1.38;;
25870;SDS011;13689;48.590;7.752;2022-10-16T08:20:05;11.65;;;4.20;;
25870;SDS011;13689;48.590;7.752;2022-10-16T08:22:31;4.53;;;1.63;;
25870;SDS011;13689;48.590;7.752;2022-10-16T08:24:57;2.28;;;1.42;;
25870;SDS011;13689;48.590;7.752;2022-10-16T08:27:23;2.70;;;1.10;;
25870;SDS011;13689;48.590;7.752;2022-10-16T08:29:49;4.35;;;1.55;;
25870;SDS011;13689;48.590;7.752;2022-10-16T08:32:17;4.15;;;1.13;;
25870;SDS011;13689;48.590;7.752;2022-10-16T08:34:43;6.65;;;1.20;;
25870;SDS011;13689;48.590;7.752;2022-10-16T08:37:09;2.55;;;1.30;;
25870;SDS011;13689;48.590;7.752;2022-10-16T08:39:36;3.07;;;1.63;;
25870;SDS011;13689;48.590;7.752;2022-10-16T08:50:14;2.35;;;1.23;;
25870;SDS011;13689;48.590;7.752;2022-10-16T08:52:46;3.13;;;1.17;;
25870;SDS011;13689;48.590;7.752;2022-10-16T08:55:57;1.50;;;1.05;;
25870;SDS011;13689;48.590;7.752;2022-10-16T08:58:10;2.50;;;1.05;;
25870;SDS011;13689;48.590;7.752;2022-10-16T09:00:41;2.65;;;1.13;;
25870;SDS011;13689;48.590;7.752;2022-10-16T09:08:51;5.95;;;1.25;;
25870;SDS011;13689;48.590;7.752;2022-10-16T09:14:07;1.20;;;1.08;;
25870;SDS011;13689;48.590;7.752;2022-10-16T09:16:46;5.75;;;1.05;;
25870;SDS011;13689;48.590;7.752;2022-10-16T09:19:29;2.65;;;1.25;;
25870;SDS011;13689;48.590;7.752;2022-10-16T09:22:14;1.85;;;0.93;;
25870;SDS011;13689;48.590;7.752;2022-10-16T09:24:40;4.20;;;1.33;;
25870;SDS011;13689;48.590;7.752;2022-10-16T09:27:10;1.38;;;0.90;;
25870;SDS011;13689;48.590;7.752;2022-10-16T09:29:38;1.98;;;1.10;;
25870;SDS011;13689;48.590;7.752;2022-10-16T09:32:11;6.05;;;1.20;;
25870;SDS011;13689;48.590;7.752;2022-10-16T09:34:40;1.25;;;0.95;;
25870;SDS011;13689;48.590;7.752;2022-10-16T09:37:11;3.28;;;1.08;;
25870;SDS011;13689;48.590;7.752;2022-10-16T09:39:46;1.88;;;1.17;;
25870;SDS011;13689;48.590;7.752;2022-10-16T09:42:22;2.10;;;0.93;;
25870;SDS011;13689;48.590;7.752;2022-10-16T09:44:56;3.10;;;1.20;;
25870;SDS011;13689;48.590;7.752;2022-10-16T09:47:23;3.15;;;1.10;;
25870;SDS011;13689;48.590;7.752;2022-10-16T09:49:55;3.83;;;1.25;;
25870;SDS011;13689;48.590;7.752;2022-10-16T09:52:24;4.00;;;1.58;;
25870;SDS011;13689;48.590;7.752;2022-10-16T09:54:54;3.08;;;0.90;;
25870;SDS011;13689;48.590;7.752;2022-10-16T09:57:21;3.40;;;1.08;;
25870;SDS011;13689;48.590;7.752;2022-10-16T09:59:48;3.75;;;0.90;;
25870;SDS011;13689;48.590;7.752;2022-10-16T10:02:16;2.60;;;1.30;;
25870;SDS011;13689;48.590;7.752;2022-10-16T10:04:49;1.02;;;0.90;;
25870;SDS011;13689;48.590;7.752;2022-10-16T10:07:42;2.53;;;1.13;;
25870;SDS011;13689;48.590;7.752;2022-10-16T10:10:27;6.95;;;1.40;;
25870;SDS011;13689;48.590;7.752;2022-10-16T10:12:54;2.38;;;1.13;;
25870;SDS011;13689;48.590;7.752;2022-10-16T10:15:21;0.80;;;0.70;;
25870;SDS011;13689;48.590;7.752;2022-10-16T10:17:55;5.00;;;1.27;;
25870;SDS011;13689;48.590;7.752;2022-10-16T10:20:26;3.17;;;0.85;;
25870;SDS011;13689;48.590;7.752;2022-10-16T10:23:00;1.27;;;1.15;;
25870;SDS011;13689;48.590;7.752;2022-10-16T10:25:44;2.25;;;1.20;;
25870;SDS011;13689;48.590;7.752;2022-10-16T10:36:41;3.13;;;1.17;;
25870;SDS011;13689;48.590;7.752;2022-10-16T10:39:13;2.58;;;1.30;;
25870;SDS011;13689;48.590;7.752;2022-10-16T10:45:02;4.20;;;1.45;;
25870;SDS011;13689;48.590;7.752;2022-10-16T10:47:16;4.40;;;1.23;;
25870;SDS011;13689;48.590;7.752;2022-10-16T10:52:59;1.98;;;1.20;;
25870;SDS011;13689;48.590;7.752;2022-10-16T10:55:56;4.75;;;1.40;;
25870;SDS011;13689;48.590;7.752;2022-10-16T11:09:55;2.30;;;1.42;;
25870;SDS011;13689;48.590;7.752;2022-10-16T11:12:30;3.22;;;1.27;;
25870;SDS011;13689;48.590;7.752;2022-10-16T11:15:04;1.52;;;1.20;;
25870;SDS011;13689;48.590;7.752;2022-10-16T11:17:40;2.60;;;1.27;;
25870;SDS011;13689;48.590;7.752;2022-10-16T11:23:04;1.92;;;1.13;;
25870;SDS011;13689;48.590;7.752;2022-10-16T11:25:44;2.22;;;1.30;;
25870;SDS011;13689;48.590;7.752;2022-10-16T11:28:26;4.13;;;1.48;;
25870;SDS011;13689;48.590;7.752;2022-10-16T11:31:11;3.05;;;1.23;;
25870;SDS011;13689;48.590;7.752;2022-10-16T11:33:44;2.28;;;1.15;;
25870;SDS011;13689;48.590;7.752;2022-10-16T11:39:03;5.50;;;1.40;;
25870;SDS011;13689;48.590;7.752;2022-10-16T11:41:49;6.35;;;1.67;;
25870;SDS011;13689;48.590;7.752;2022-10-16T11:55:49;7.18;;;1.60;;
25870;SDS011;13689;48.590;7.752;2022-10-16T11:58:28;7.97;;;1.30;;
25870;SDS011;13689;48.590;7.752;2022-10-16T12:01:10;4.03;;;1.50;;
25870;SDS011;13689;48.590;7.752;2022-10-16T12:06:49;2.45;;;1.35;;
25870;SDS011;13689;48.590;7.752;2022-10-16T12:09:31;4.22;;;1.48;;
25870;SDS011;13689;48.590;7.752;2022-10-16T12:11:58;3.17;;;1.35;;
25870;SDS011;13689;48.590;7.752;2022-10-16T12:17:22;7.93;;;1.63;;
25870;SDS011;13689;48.590;7.752;2022-10-16T12:19:56;5.95;;;1.30;;
25870;SDS011;13689;48.590;7.752;2022-10-16T12:22:48;2.77;;;1.53;;
25870;SDS011;13689;48.590;7.752;2022-10-16T12:25:20;2.28;;;1.40;;
25870;SDS011;13689;48.590;7.752;2022-10-16T12:27:53;7.82;;;1.38;;
25870;SDS011;13689;48.590;7.752;2022-10-16T12:30:25;3.65;;;1.60;;
25870;SDS011;13689;48.590;7.752;2022-10-16T12:32:56;5.13;;;1.63;;
25870;SDS011;13689;48.590;7.752;2022-10-16T12:35:32;2.13;;;1.40;;
25870;SDS011;13689;48.590;7.752;2022-10-16T12:38:04;5.95;;;1.30;;
25870;SDS011;13689;48.590;7.752;2022-10-16T12:46:01;7.93;;;1.70;;
25870;SDS011;13689;48.590;7.752;2022-10-16T12:48:47;5.65;;;1.52;;
25870;SDS011;13689;48.590;7.752;2022-10-16T12:54:14;3.47;;;1.05;;
25870;SDS011;13689;48.590;7.752;2022-10-16T12:59:53;1.30;;;1.20;;
25870;SDS011;13689;48.590;7.752;2022-10-16T13:08:00;2.38;;;1.30;;
25870;SDS011;13689;48.590;7.752;2022-10-16T13:16:08;3.03;;;1.40;;
25870;SDS011;13689;48.590;7.752;2022-10-16T13:21:18;1.80;;;1.30;;
25870;SDS011;13689;48.590;7.752;2022-10-16T13:23:48;4.32;;;1.55;;
25870;SDS011;13689;48.590;7.752;2022-10-16T13:29:09;5.47;;;1.85;;
25870;SDS011;13689;48.590;7.752;2022-10-16T13:31:36;7.97;;;1.80;;
25870;SDS011;13689;48.590;7.752;2022-10-16T13:34:04;3.42;;;1.50;;
25870;SDS011;13689;48.590;7.752;2022-10-16T13:36:35;2.65;;;1.52;;
25870;SDS011;13689;48.590;7.752;2022-10-16T13:39:12;4.35;;;1.13;;
25870;SDS011;13689;48.590;7.752;2022-10-16T13:44:49;4.85;;;1.30;;
25870;SDS011;13689;48.590;7.752;2022-10-16T13:47:20;7.60;;;1.45;;
25870;SDS011;13689;48.590;7.752;2022-10-16T13:50:11;6.95;;;1.27;;
25870;SDS011;13689;48.590;7.752;2022-10-16T13:52:39;4.05;;;1.60;;
25870;SDS011;13689;48.590;7.752;2022-10-16T13:58:04;6.10;;;1.42;;
25870;SDS011;13689;48.590;7.752;2022-10-16T14:00:33;1.33;;;1.20;;
25870;SDS011;13689;48.590;7.752;2022-10-16T14:03:04;4.05;;;1.45;;
25870;SDS011;13689;48.590;7.752;2022-10-16T14:05:32;5.47;;;1.65;;
25870;SDS011;13689;48.590;7.752;2022-10-16T14:07:59;6.07;;;1.50;;
25870;SDS011;13689;48.590;7.752;2022-10-16T14:10:27;2.83;;;1.50;;
25870;SDS011;13689;48.590;7.752;2022-10-16T14:13:04;2.33;;;1.20;;
25870;SDS011;13689;48.590;7.752;2022-10-16T14:15:32;5.38;;;1.67;;
25870;SDS011;13689;48.590;7.752;2022-10-16T14:20:28;5.97;;;1.80;;
25870;SDS011;13689;48.590;7.752;2022-10-16T14:23:00;7.78;;;1.80;;
25870;SDS011;13689;48.590;7.752;2022-10-16T14:30:54;2.33;;;1.67;;
25870;SDS011;13689;48.590;7.752;2022-10-16T14:36:02;3.15;;;1.45;;
25870;SDS011;13689;48.590;7.752;2022-10-16T14:38:35;5.65;;;1.38;;
25870;SDS011;13689;48.590;7.752;2022-10-16T14:41:04;4.70;;;1.60;;
25870;SDS011;13689;48.590;7.752;2022-10-16T14:43:35;2.97;;;1.70;;
25870;SDS011;13689;48.590;7.752;2022-10-16T14:46:03;2.03;;;1.35;;
25870;SDS011;13689;48.590;7.752;2022-10-16T14:48:31;6.93;;;1.70;;
25870;SDS011;13689;48.590;7.752;2022-10-16T14:50:57;4.97;;;1.20;;
25870;SDS011;13689;48.590;7.752;2022-10-16T14:53:23;4.57;;;1.60;;
25870;SDS011;13689;48.590;7.752;2022-10-16T14:55:48;1.52;;;0.98;;
25870;SDS011;13689;48.590;7.752;2022-10-16T14:58:16;2.15;;;1.58;;
25870;SDS011;13689;48.590;7.752;2022-10-16T15:00:45;2.47;;;1.25;;
25870;SDS011;13689;48.590;7.752;2022-10-16T15:03:11;2.75;;;1.60;;
25870;SDS011;13689;48.590;7.752;2022-10-16T15:05:37;2.80;;;1.40;;
25870;SDS011;13689;48.590;7.752;2022-10-16T15:08:02;1.80;;;1.27;;
25870;SDS011;13689;48.590;7.752;2022-10-16T15:10:29;2.65;;;1.85;;
25870;SDS011;13689;48.590;7.752;2022-10-16T15:12:58;1.60;;;1.27;;
25870;SDS011;13689;48.590;7.752;2022-10-16T15:15:28;1.75;;;1.30;;
25870;SDS011;13689;48.590;7.752;2022-10-16T15:17:59;2.15;;;1.10;;
25870;SDS011;13689;48.590;7.752;2022-10-16T15:20:27;2.10;;;1.30;;
25870;SDS011;13689;48.590;7.752;2022-10-16T15:22:55;4.32;;;1.48;;
25870;SDS011;13689;48.590;7.752;2022-10-16T15:28:01;5.05;;;1.67;;
25870;SDS011;13689;48.590;7.752;2022-10-16T15:30:28;2.83;;;1.42;;
25870;SDS011;13689;48.590;7.752;2022-10-16T15:32:53;1.67;;;1.20;;
25870;SDS011;13689;48.590;7.752;2022-10-16T15:35:19;1.85;;;1.20;;
25870;SDS011;13689;48.590;7.752;2022-10-16T15:37:47;3.60;;;1.40;;
25870;SDS011;13689;48.590;7.752;2022-10-16T15:40:13;5.82;;;1.38;;
25870;SDS011;13689;48.590;7.752;2022-10-16T15:42:39;4.25;;;1.52;;
25870;SDS011;13689;48.590;7.752;2022-10-16T15:45:05;4.78;;;1.30;;
25870;SDS011;13689;48.590;7.752;2022-10-16T15:47:32;3.35;;;1.77;;
25870;SDS011;13689;48.590;7.752;2022-10-16T15:49:57;3.85;;;1.50;;
25870;SDS011;13689;48.590;7.752;2022-10-16T15:52:23;5.45;;;1.40;;
25870;SDS011;13689;48.590;7.752;2022-10-16T15:54:49;1.50;;;1.10;;
25870;SDS011;13689;48.590;7.752;2022-10-16T15:57:15;3.22;;;1.20;;
25870;SDS011;13689;48.590;7.752;2022-10-16T15:59:44;2.10;;;1.30;;
25870;SDS011;13689;48.590;7.752;2022-10-16T16:02:09;4.22;;;1.35;;
25870;SDS011;13689;48.590;7.752;2022-10-16T16:04:36;2.90;;;1.23;;
25870;SDS011;13689;48.590;7.752;2022-10-16T16:07:02;7.00;;;1.70;;
25870;SDS011;13689;48.590;7.752;2022-10-16T16:09:30;5.93;;;1.70;;
25870;SDS011;13689;48.590;7.752;2022-10-16T16:11:56;2.40;;;1.52;;
25870;SDS011;13689;48.590;7.752;2022-10-16T16:14:25;2.42;;;1.63;;
25870;SDS011;13689;48.590;7.752;2022-10-16T16:16:57;5.00;;;1.95;;
25870;SDS011;13689;48.590;7.752;2022-10-16T16:19:23;3.53;;;1.60;;
25870;SDS011;13689;48.590;7.752;2022-10-16T16:21:49;2.65;;;1.90;;
25870;SDS011;13689;48.590;7.752;2022-10-16T16:24:15;3.40;;;1.98;;
25870;SDS011;13689;48.590;7.752;2022-10-16T16:26:41;2.78;;;2.30;;
25870;SDS011;13689;48.590;7.752;2022-10-16T16:29:12;9.75;;;2.28;;
25870;SDS011;13689;48.590;7.752;2022-10-16T16:31:39;5.82;;;2.15;;
25870;SDS011;13689;48.590;7.752;2022-10-16T16:34:05;4.20;;;2.22;;
25870;SDS011;13689;48.590;7.752;2022-10-16T16:36:32;5.03;;;1.85;;
25870;SDS011;13689;48.590;7.752;2022-10-16T16:39:03;4.32;;;1.95;;
25870;SDS011;13689;48.590;7.752;2022-10-16T16:41:29;6.40;;;2.50;;
25870;SDS011;13689;48.590;7.752;2022-10-16T16:43:55;3.13;;;1.70;;
25870;SDS011;13689;48.590;7.752;2022-10-16T16:46:31;5.22;;;2.13;;
25870;SDS011;13689;48.590;7.752;2022-10-16T16:48:58;10.20;;;2.00;;
25870;SDS011;13689;48.590;7.752;2022-10-16T16:51:24;5.65;;;1.95;;
25870;SDS011;13689;48.590;7.752;2022-10-16T16:53:54;7.95;;;2.35;;
25870;SDS011;13689;48.590;7.752;2022-10-16T16:56:20;5.35;;;2.25;;
25870;SDS011;13689;48.590;7.752;2022-10-16T16:58:48;6.00;;;2.80;;
25870;SDS011;13689;48.590;7.752;2022-10-16T17:01:14;10.70;;;2.40;;
25870;SDS011;13689;48.590;7.752;2022-10-16T17:03:41;5.60;;;2.45;;
25870;SDS011;13689;48.590;7.752;2022-10-16T17:06:11;3.95;;;1.95;;
25870;SDS011;13689;48.590;7.752;2022-10-16T17:08:39;4.05;;;2.35;;
25870;SDS011;13689;48.590;7.752;2022-10-16T17:11:05;6.60;;;2.88;;
25870;SDS011;13689;48.590;7.752;2022-10-16T17:13:36;4.45;;;2.90;;
25870;SDS011;13689;48.590;7.752;2022-10-16T17:16:02;7.53;;;2.97;;
25870;SDS011;13689;48.590;7.752;2022-10-16T17:18:29;3.70;;;2.88;;